createdAt,value
2018-03-29T00:01:16.663Z,55.35
2018-03-29T00:03:44.325Z,56.24
2018-03-29T00:06:12.185Z,56.38
2018-03-29T00:08:39.857Z,57.53
2018-03-29T00:11:07.619Z,57.53
2018-03-29T00:13:35.292Z,57.47
2018-03-29T00:16:03.045Z,56.59
2018-03-29T00:18:30.809Z,56.57
2018-03-29T00:20:58.471Z,56.86
2018-03-29T00:23:26.135Z,56.81
2018-03-29T00:25:53.897Z,57.03
2018-03-29T00:28:21.663Z,57.59
2018-03-29T00:30:49.374Z,57.30
2018-03-29T00:33:17.099Z,57.28
2018-03-29T00:35:44.805Z,57.16
2018-03-29T00:38:12.618Z,56.76
2018-03-29T00:40:40.281Z,56.49
2018-03-29T00:43:08.054Z,56.14
2018-03-29T00:45:35.705Z,55.00
2018-03-29T00:48:03.414Z,54.87
2018-03-29T00:50:31.137Z,54.93
2018-03-29T00:56:00.761Z,54.95
2018-03-29T00:58:28.525Z,55.44
2018-03-29T01:00:56.180Z,54.92
2018-03-29T01:03:23.952Z,54.20
2018-03-29T01:05:51.715Z,53.61
2018-03-29T01:08:19.479Z,53.62
2018-03-29T01:10:47.142Z,53.26
2018-03-29T01:13:15.009Z,51.65
2018-03-29T01:15:42.776Z,50.64
2018-03-29T01:18:10.490Z,50.13
2018-03-29T01:20:38.200Z,50.47
2018-03-29T01:23:05.861Z,50.34
2018-03-29T01:25:33.530Z,51.00
2018-03-29T01:28:01.257Z,50.91
2018-03-29T01:30:28.950Z,50.56
2018-03-29T01:32:56.661Z,50.63
2018-03-29T01:35:24.383Z,50.87
2018-03-29T01:37:52.089Z,51.55
2018-03-29T01:40:19.905Z,50.78
2018-03-29T01:42:47.564Z,51.84
2018-03-29T01:45:15.398Z,52.24
2018-03-29T01:47:43.097Z,52.46
2018-03-29T01:50:10.963Z,53.36
2018-03-29T01:52:38.829Z,53.29
2018-03-29T01:55:06.600Z,52.73
2018-03-29T01:57:34.256Z,52.11
2018-03-29T02:00:02.020Z,52.62
2018-03-29T02:02:29.676Z,52.54
2018-03-29T02:04:57.350Z,52.08
2018-03-29T02:07:25.006Z,51.37
2018-03-29T02:09:52.669Z,51.87
2018-03-29T02:12:20.370Z,52.11
2018-03-29T02:14:48.197Z,50.28
2018-03-29T02:17:15.962Z,51.16
2018-03-29T02:19:43.828Z,51.47
2018-03-29T02:22:11.489Z,51.70
2018-03-29T02:24:39.254Z,52.15
2018-03-29T02:27:06.969Z,52.17
2018-03-29T02:29:34.784Z,52.26
2018-03-29T02:32:02.446Z,52.19
2018-03-29T02:34:30.168Z,52.58
2018-03-29T02:36:57.891Z,52.93
2018-03-29T02:39:25.575Z,53.55
2018-03-29T02:41:53.402Z,54.19
2018-03-29T02:44:21.063Z,53.87
2018-03-29T02:46:48.930Z,53.93
2018-03-29T02:49:16.592Z,53.66
2018-03-29T02:51:44.248Z,53.72
2018-03-29T02:54:11.972Z,53.63
2018-03-29T02:56:39.781Z,52.92
2018-03-29T02:59:07.447Z,52.45
2018-03-29T03:01:35.107Z,52.42
2018-03-29T03:04:02.812Z,53.06
2018-03-29T03:06:30.536Z,52.74
2018-03-29T03:08:58.196Z,53.91
2018-03-29T03:11:25.913Z,53.59
2018-03-29T03:13:53.724Z,54.10
2018-03-29T03:16:21.385Z,54.47
2018-03-29T03:18:49.150Z,53.13
2018-03-29T03:21:16.811Z,53.40
2018-03-29T03:23:44.606Z,53.53
2018-03-29T03:26:12.347Z,53.32
2018-03-29T03:28:40.107Z,53.69
2018-03-29T03:31:07.973Z,53.69
2018-03-29T03:33:35.737Z,53.49
2018-03-29T03:36:03.450Z,52.99
2018-03-29T03:38:31.264Z,53.14
2018-03-29T03:40:58.928Z,53.25
2018-03-29T03:43:26.653Z,53.72
2018-03-29T03:45:54.354Z,53.88
2018-03-29T03:48:22.220Z,54.17
2018-03-29T03:50:49.953Z,53.69
2018-03-29T03:53:17.749Z,53.86
2018-03-29T03:55:45.463Z,53.97
2018-03-29T03:58:13.177Z,54.11
2018-03-29T04:00:40.940Z,53.96
2018-03-29T04:03:08.602Z,53.27
2018-03-29T04:05:36.257Z,53.78
2018-03-29T04:08:04.028Z,54.85
2018-03-29T04:10:31.691Z,55.41
2018-03-29T04:12:59.454Z,56.75
2018-03-29T04:15:27.117Z,57.47
2018-03-29T04:17:54.778Z,56.13
2018-03-29T04:20:22.653Z,55.57
2018-03-29T04:22:50.366Z,55.52
2018-03-29T04:25:18.174Z,55.55
2018-03-29T04:27:45.894Z,54.62
2018-03-29T04:30:13.600Z,54.53
2018-03-29T04:32:41.302Z,54.11
2018-03-29T04:35:09.027Z,54.96
2018-03-29T04:37:36.732Z,55.01
2018-03-29T04:40:04.454Z,54.76
2018-03-29T04:42:32.117Z,54.14
2018-03-29T04:44:59.981Z,54.86
2018-03-29T04:47:27.707Z,54.93
2018-03-29T04:49:55.511Z,54.50
2018-03-29T04:52:23.277Z,53.51
2018-03-29T04:54:51.039Z,52.78
2018-03-29T04:57:18.803Z,52.75
2018-03-29T04:59:46.568Z,53.29
2018-03-29T05:02:14.273Z,53.30
2018-03-29T05:04:41.995Z,52.88
2018-03-29T05:07:09.760Z,52.87
2018-03-29T05:09:37.627Z,53.32
2018-03-29T05:12:05.390Z,53.61
2018-03-29T05:14:33.154Z,53.79
2018-03-29T05:17:01.024Z,53.60
2018-03-29T05:19:28.685Z,53.31
2018-03-29T05:21:56.448Z,52.79
2018-03-29T05:24:24.199Z,52.47
2018-03-29T05:26:52.081Z,52.27
2018-03-29T05:29:19.842Z,52.34
2018-03-29T05:31:47.547Z,53.06
2018-03-29T05:34:15.373Z,52.39
2018-03-29T05:36:43.139Z,51.75
2018-03-29T05:39:10.844Z,51.36
2018-03-29T05:41:38.666Z,50.86
2018-03-29T05:44:06.528Z,51.19
2018-03-29T05:46:34.244Z,51.62
2018-03-29T05:49:02.028Z,51.11
2018-03-29T05:51:29.825Z,51.65
2018-03-29T05:53:57.648Z,52.11
2018-03-29T05:56:25.458Z,52.28
2018-03-29T05:58:53.183Z,52.69
2018-03-29T06:01:20.986Z,52.93
2018-03-29T06:03:48.714Z,54.25
2018-03-29T06:06:16.519Z,54.36
2018-03-29T06:08:44.342Z,54.48
2018-03-29T06:11:12.247Z,54.76
2018-03-29T06:13:40.933Z,54.29
2018-03-29T06:16:08.703Z,53.66
2018-03-29T06:18:36.506Z,53.04
2018-03-29T06:21:04.332Z,52.83
2018-03-29T06:23:32.201Z,51.74
2018-03-29T06:25:59.960Z,53.47
2018-03-29T06:28:27.726Z,54.55
2018-03-29T06:30:55.441Z,54.41
2018-03-29T06:33:23.215Z,53.85
2018-03-29T06:35:51.122Z,53.85
2018-03-29T06:38:18.840Z,54.04
2018-03-29T06:40:46.619Z,53.65
2018-03-29T06:43:14.370Z,53.43
2018-03-29T06:45:42.078Z,53.59
2018-03-29T06:48:09.803Z,54.06
2018-03-29T06:50:37.554Z,54.26
2018-03-29T06:53:05.371Z,53.50
2018-03-29T06:55:33.134Z,53.04
2018-03-29T06:58:00.795Z,53.47
2018-03-29T07:00:28.560Z,53.31
2018-03-29T07:02:56.283Z,52.79
2018-03-29T07:05:23.992Z,52.03
2018-03-29T07:07:51.709Z,51.76
2018-03-29T07:10:19.411Z,51.09
2018-03-29T07:12:47.115Z,50.66
2018-03-29T07:15:14.783Z,49.84
2018-03-29T07:17:42.706Z,49.55
2018-03-29T07:20:10.372Z,47.50
2018-03-29T07:22:38.188Z,45.41
2018-03-29T07:25:06.002Z,43.55
2018-03-29T07:27:33.818Z,42.93
2018-03-29T07:30:01.631Z,41.45
2018-03-29T07:32:29.394Z,41.14
2018-03-29T07:34:57.139Z,41.90
2018-03-29T07:37:24.923Z,41.17
2018-03-29T07:39:52.645Z,40.18
2018-03-29T07:42:20.451Z,40.95
2018-03-29T07:44:48.216Z,41.30
2018-03-29T07:47:15.989Z,38.05
2018-03-29T07:49:43.687Z,37.91
2018-03-29T07:52:11.507Z,37.71
2018-03-29T07:54:39.171Z,38.27
2018-03-29T07:57:06.936Z,37.64
2018-03-29T07:59:34.701Z,39.93
2018-03-29T08:02:02.567Z,40.28
2018-03-29T08:04:30.332Z,41.33
2018-03-29T08:06:58.096Z,42.46
2018-03-29T08:09:25.860Z,42.89
2018-03-29T08:11:53.521Z,42.01
2018-03-29T08:14:21.332Z,41.67
2018-03-29T08:16:48.949Z,44.14
2018-03-29T08:19:16.816Z,44.93
2018-03-29T08:21:44.597Z,44.89
2018-03-29T08:24:12.423Z,45.61
2018-03-29T08:26:40.211Z,45.58
2018-03-29T08:29:07.974Z,45.36
2018-03-29T08:31:35.690Z,45.13
2018-03-29T08:34:03.503Z,45.79
2018-03-29T08:36:31.271Z,45.09
2018-03-29T08:38:59.136Z,44.66
2018-03-29T08:41:26.854Z,43.31
2018-03-29T08:43:54.667Z,42.78
2018-03-29T08:46:22.430Z,42.37
2018-03-29T08:48:50.296Z,41.86
2018-03-29T08:51:17.997Z,42.75
2018-03-29T08:53:45.729Z,44.03
2018-03-29T08:56:13.391Z,43.02
2018-03-29T08:58:41.104Z,40.23
2018-03-29T09:01:08.912Z,38.63
2018-03-29T09:03:36.631Z,37.47
2018-03-29T09:06:04.395Z,36.94
2018-03-29T09:08:32.103Z,36.90
2018-03-29T09:10:59.972Z,35.50
2018-03-29T09:13:27.696Z,34.22
2018-03-29T09:15:55.399Z,32.71
2018-03-29T09:18:23.169Z,32.40
2018-03-29T09:20:51.137Z,31.47
2018-03-29T09:23:18.791Z,31.95
2018-03-29T09:25:46.664Z,31.33
2018-03-29T09:28:14.423Z,31.55
2018-03-29T09:30:42.188Z,31.11
2018-03-29T09:33:09.951Z,31.26
2018-03-29T09:35:37.652Z,30.48
2018-03-29T09:38:05.383Z,29.78
2018-03-29T09:40:33.326Z,30.05
2018-03-29T09:43:01.112Z,29.02
2018-03-29T09:45:28.878Z,28.48
2018-03-29T09:47:56.624Z,28.45
2018-03-29T09:50:24.373Z,27.56
2018-03-29T09:52:52.113Z,28.54
2018-03-29T09:55:19.932Z,29.06
2018-03-29T09:57:47.600Z,30.69
2018-03-29T10:00:15.468Z,31.65
2018-03-29T10:02:48.758Z,33.32
2018-03-29T10:05:16.419Z,34.03
2018-03-29T10:07:44.285Z,34.41
2018-03-29T10:10:12.050Z,34.26
2018-03-29T10:12:39.917Z,35.16
2018-03-29T10:15:07.680Z,35.34
2018-03-29T10:17:35.551Z,34.65
2018-03-29T10:20:03.320Z,34.27
2018-03-29T10:22:31.076Z,34.53
2018-03-29T10:24:58.948Z,34.62
2018-03-29T10:27:26.669Z,33.84
2018-03-29T10:29:54.478Z,33.75
2018-03-29T10:32:22.235Z,33.64
2018-03-29T10:34:49.944Z,33.34
2018-03-29T10:37:17.760Z,33.70
2018-03-29T10:39:45.427Z,33.07
2018-03-29T10:42:13.192Z,30.89
2018-03-29T10:44:40.861Z,30.74
2018-03-29T10:47:08.722Z,31.63
2018-03-29T10:49:36.442Z,31.65
2018-03-29T10:52:04.256Z,32.29
2018-03-29T10:54:32.116Z,32.18
2018-03-29T10:56:59.781Z,29.46
2018-03-29T10:59:27.555Z,28.29
2018-03-29T11:01:55.307Z,27.65
2018-03-29T11:04:23.044Z,28.82
2018-03-29T11:06:50.835Z,30.63
2018-03-29T11:09:18.497Z,30.77
2018-03-29T11:11:46.223Z,32.16
2018-03-29T11:14:14.027Z,33.44
2018-03-29T11:16:41.755Z,34.73
2018-03-29T11:19:09.555Z,35.74
2018-03-29T11:21:37.211Z,37.26
2018-03-29T11:24:04.925Z,37.99
2018-03-29T11:26:32.625Z,37.03
2018-03-29T11:29:00.309Z,35.95
2018-03-29T11:31:28.024Z,33.78
2018-03-29T11:33:55.735Z,33.62
2018-03-29T11:36:23.497Z,31.93
2018-03-29T11:38:51.416Z,31.75
2018-03-29T11:41:19.092Z,30.00
2018-03-29T11:43:46.996Z,31.03
2018-03-29T11:46:14.823Z,31.46
2018-03-29T11:48:42.628Z,29.45
2018-03-29T11:51:10.482Z,30.11
2018-03-29T11:53:38.154Z,29.18
2018-03-29T11:56:06.123Z,28.93
2018-03-29T11:58:33.779Z,27.94
2018-03-29T12:01:01.555Z,26.48
2018-03-29T12:03:29.268Z,26.49
2018-03-29T12:05:56.977Z,26.69
2018-03-29T12:08:24.695Z,26.30
2018-03-29T12:10:52.504Z,26.06
2018-03-29T12:13:20.334Z,26.46
2018-03-29T12:15:48.140Z,25.36
2018-03-29T12:18:15.794Z,24.51
2018-03-29T12:20:43.664Z,24.39
2018-03-29T12:23:11.415Z,25.76
2018-03-29T12:25:39.195Z,26.42
2018-03-29T12:28:07.059Z,28.06
2018-03-29T12:30:34.826Z,29.23
2018-03-29T12:33:02.673Z,27.99
2018-03-29T12:35:30.451Z,28.68
2018-03-29T12:37:58.220Z,29.71
2018-03-29T12:40:26.089Z,30.90
2018-03-29T12:42:53.928Z,32.13
2018-03-29T12:45:21.796Z,34.45
2018-03-29T12:47:49.539Z,36.99
2018-03-29T12:50:17.359Z,39.29
2018-03-29T12:52:45.216Z,38.43
2018-03-29T12:55:24.760Z,36.43
2018-03-29T12:58:04.399Z,35.62
2018-03-29T13:00:32.164Z,36.01
2018-03-29T13:02:59.902Z,36.01
2018-03-29T13:05:27.692Z,35.59
2018-03-29T13:07:55.423Z,34.60
2018-03-29T13:10:23.118Z,33.36
2018-03-29T13:12:51.089Z,33.00
2018-03-29T13:15:18.852Z,32.34
2018-03-29T13:17:46.572Z,31.43
2018-03-29T13:20:14.386Z,29.91
2018-03-29T13:22:42.250Z,29.39
2018-03-29T13:25:10.007Z,28.87
2018-03-29T13:27:37.882Z,28.11
2018-03-29T13:30:05.644Z,28.25
2018-03-29T13:32:33.408Z,27.76
2018-03-29T13:35:01.275Z,28.47
2018-03-29T13:37:29.038Z,28.82
2018-03-29T13:39:56.835Z,28.52
2018-03-29T13:42:24.568Z,29.39
2018-03-29T13:44:52.329Z,29.46
2018-03-29T13:47:20.004Z,29.43
2018-03-29T13:49:47.805Z,30.09
2018-03-29T13:52:15.572Z,29.74
2018-03-29T13:54:43.393Z,28.52
2018-03-29T13:57:11.104Z,27.03
2018-03-29T13:59:38.858Z,26.29
2018-03-29T14:02:06.545Z,26.83
2018-03-29T14:04:34.348Z,26.68
2018-03-29T14:07:02.017Z,26.78
2018-03-29T14:09:29.874Z,26.71
2018-03-29T14:11:57.576Z,27.04
2018-03-29T14:14:25.301Z,28.41
2018-03-29T14:16:53.013Z,28.73
2018-03-29T14:19:20.828Z,28.33
2018-03-29T14:21:48.597Z,27.96
2018-03-29T14:24:16.257Z,26.89
2018-03-29T14:26:44.021Z,26.72
2018-03-29T14:29:11.747Z,27.77
2018-03-29T14:31:39.492Z,27.93
2018-03-29T14:34:07.109Z,27.61
2018-03-29T14:36:35.076Z,28.24
2018-03-29T14:39:02.845Z,28.43
2018-03-29T14:41:30.767Z,28.32
2018-03-29T14:43:58.576Z,28.50
2018-03-29T14:46:26.443Z,28.71
2018-03-29T14:48:54.154Z,28.61
2018-03-29T14:51:21.972Z,29.89
2018-03-29T14:53:49.694Z,30.49
2018-03-29T14:56:17.502Z,30.90
2018-03-29T14:58:45.343Z,31.40
2018-03-29T15:01:13.134Z,31.19
2018-03-29T15:03:40.983Z,31.13
2018-03-29T15:06:08.660Z,31.29
2018-03-29T15:08:36.528Z,31.66
2018-03-29T15:11:04.288Z,31.52
2018-03-29T15:13:32.024Z,31.37
2018-03-29T15:15:59.719Z,31.21
2018-03-29T15:18:27.595Z,32.07
2018-03-29T15:20:55.349Z,32.14
2018-03-29T15:23:23.219Z,32.23
2018-03-29T15:25:50.980Z,31.82
2018-03-29T15:28:18.696Z,32.67
2018-03-29T15:30:46.510Z,32.32
2018-03-29T15:33:14.279Z,32.11
2018-03-29T15:35:42.043Z,32.42
2018-03-29T15:38:09.876Z,32.58
2018-03-29T15:40:37.630Z,31.80
2018-03-29T15:43:05.841Z,32.14
2018-03-29T15:45:33.565Z,32.65
2018-03-29T15:48:01.371Z,32.41
2018-03-29T15:50:29.094Z,32.20
2018-03-29T15:52:56.900Z,32.96
2018-03-29T15:55:24.667Z,32.65
2018-03-29T15:57:52.327Z,32.29
2018-03-29T16:00:19.991Z,32.55
2018-03-29T16:02:47.754Z,32.03
2018-03-29T16:05:15.415Z,32.29
2018-03-29T16:07:43.241Z,32.49
2018-03-29T16:10:11.049Z,32.26
2018-03-29T16:12:38.960Z,31.41
2018-03-29T16:15:06.676Z,31.31
2018-03-29T16:17:34.525Z,30.92
2018-03-29T16:20:02.412Z,31.02
2018-03-29T16:22:30.137Z,31.56
2018-03-29T16:24:57.941Z,32.05
2018-03-29T16:27:25.711Z,32.58
2018-03-29T16:29:53.570Z,32.61
2018-03-29T16:32:21.275Z,32.88
2018-03-29T16:34:49.096Z,32.92
2018-03-29T16:37:16.868Z,33.19
2018-03-29T16:39:44.626Z,32.42
2018-03-29T16:42:12.396Z,33.40
2018-03-29T16:44:40.160Z,34.00
2018-03-29T16:47:08.025Z,34.60
2018-03-29T16:49:35.788Z,34.96
2018-03-29T16:52:03.553Z,35.14
2018-03-29T16:54:31.318Z,34.99
2018-03-29T16:56:58.980Z,35.44
2018-03-29T16:59:26.696Z,36.08
2018-03-29T17:01:54.505Z,36.14
2018-03-29T17:04:22.277Z,36.44
2018-03-29T17:06:50.250Z,36.67
2018-03-29T17:09:18.045Z,36.98
2018-03-29T17:11:45.878Z,36.90
2018-03-29T17:14:13.640Z,36.58
2018-03-29T17:16:41.448Z,36.04
2018-03-29T17:19:09.271Z,36.62
2018-03-29T17:21:37.114Z,37.17
2018-03-29T17:24:04.846Z,37.41
2018-03-29T17:26:32.779Z,38.02
2018-03-29T17:29:00.523Z,38.67
2018-03-29T17:31:28.345Z,38.64
2018-03-29T17:33:56.264Z,38.84
2018-03-29T17:36:23.978Z,38.68
2018-03-29T17:38:51.801Z,38.79
2018-03-29T17:41:19.782Z,39.21
2018-03-29T17:43:47.526Z,39.66
2018-03-29T17:46:15.349Z,39.40
2018-03-29T17:48:43.054Z,39.41
2018-03-29T17:51:10.781Z,39.53
2018-03-29T17:53:38.588Z,39.22
2018-03-29T17:56:06.440Z,39.57
2018-03-29T17:58:34.111Z,39.41
2018-03-29T18:01:01.879Z,39.47
2018-03-29T18:03:29.747Z,39.45
2018-03-29T18:05:57.457Z,39.33
2018-03-29T18:08:25.375Z,39.27
2018-03-29T18:10:53.211Z,39.29
2018-03-29T18:13:20.905Z,39.50
2018-03-29T18:15:48.668Z,39.57
2018-03-29T18:18:16.434Z,39.02
2018-03-29T18:20:44.151Z,38.87
2018-03-29T18:23:11.972Z,39.06
2018-03-29T18:25:39.627Z,39.40
2018-03-29T18:28:07.389Z,39.12
2018-03-29T18:30:35.259Z,39.20
2018-03-29T18:33:03.092Z,39.25
2018-03-29T18:35:30.888Z,39.35
2018-03-29T18:37:58.695Z,39.27
2018-03-29T18:40:26.517Z,39.41
2018-03-29T18:42:54.286Z,39.76
2018-03-29T18:45:22.046Z,39.03
2018-03-29T18:47:49.811Z,39.81
2018-03-29T18:50:17.582Z,39.54
2018-03-29T18:52:45.294Z,40.31
2018-03-29T18:55:13.105Z,40.32
2018-03-29T18:57:40.869Z,40.50
2018-03-29T19:00:08.625Z,40.22
2018-03-29T19:02:36.360Z,40.69
2018-03-29T19:05:04.161Z,41.04
2018-03-29T19:07:31.926Z,41.20
2018-03-29T19:09:59.796Z,41.48
2018-03-29T19:12:27.509Z,41.74
2018-03-29T19:14:55.319Z,42.06
2018-03-29T19:17:23.135Z,42.28
2018-03-29T19:19:50.951Z,42.12
2018-03-29T19:22:18.668Z,41.82
2018-03-29T19:24:46.481Z,42.64
2018-03-29T19:27:14.256Z,42.99
2018-03-29T19:29:42.112Z,43.11
2018-03-29T19:32:09.844Z,43.61
2018-03-29T19:34:37.646Z,43.60
2018-03-29T19:37:05.395Z,43.67
2018-03-29T19:39:33.111Z,43.50
2018-03-29T19:42:00.872Z,43.21
2018-03-29T19:44:28.588Z,43.78
2018-03-29T19:46:56.261Z,43.74
2018-03-29T19:49:24.023Z,43.82
2018-03-29T19:51:51.890Z,43.77
2018-03-29T19:54:19.657Z,43.68
2018-03-29T19:56:47.523Z,43.47
2018-03-29T19:59:15.285Z,43.53
2018-03-29T20:01:43.153Z,43.42
2018-03-29T20:04:10.926Z,43.47
2018-03-29T20:06:38.766Z,43.38
2018-03-29T20:09:06.546Z,43.17
2018-03-29T20:11:34.312Z,43.31
2018-03-29T20:14:02.180Z,43.23
2018-03-29T20:16:29.906Z,43.28
2018-03-29T20:18:57.672Z,43.04
2018-03-29T20:21:25.474Z,42.94
2018-03-29T20:23:53.237Z,42.97
2018-03-29T20:26:21.103Z,42.94
2018-03-29T20:28:48.770Z,43.06
2018-03-29T20:31:16.505Z,43.24
2018-03-29T20:33:44.251Z,43.75
2018-03-29T20:36:11.958Z,44.33
2018-03-29T20:38:39.823Z,44.76
2018-03-29T20:41:07.570Z,44.82
2018-03-29T20:43:35.320Z,44.98
2018-03-29T20:46:03.116Z,45.00
2018-03-29T20:48:30.946Z,44.84
2018-03-29T20:50:58.748Z,45.03
2018-03-29T20:53:26.617Z,45.17
2018-03-29T20:55:54.358Z,45.34
2018-03-29T20:58:22.089Z,45.83
2018-03-29T21:00:49.804Z,46.09
2018-03-29T21:03:17.498Z,46.02
2018-03-29T21:05:45.231Z,45.94
2018-03-29T21:08:13.201Z,46.01
2018-03-29T21:10:40.964Z,46.07
2018-03-29T21:13:08.734Z,46.04
2018-03-29T21:15:36.456Z,46.13
2018-03-29T21:18:04.258Z,46.13
2018-03-29T21:20:32.023Z,46.09
2018-03-29T21:22:59.685Z,46.18
2018-03-29T21:25:27.455Z,46.66
2018-03-29T21:27:55.259Z,46.83
2018-03-29T21:30:22.977Z,47.04
2018-03-29T21:32:50.639Z,46.89
2018-03-29T21:35:18.458Z,47.13
2018-03-29T21:37:46.174Z,47.07
2018-03-29T21:40:13.991Z,47.08
2018-03-29T21:42:41.702Z,47.33
2018-03-29T21:45:09.424Z,47.61
2018-03-29T21:47:37.159Z,47.17
2018-03-29T21:50:04.887Z,47.41
2018-03-29T21:52:32.560Z,47.53
2018-03-29T21:55:00.519Z,47.53
2018-03-29T21:57:28.285Z,47.41
2018-03-29T21:59:56.150Z,47.74
2018-03-29T22:02:23.830Z,48.02
2018-03-29T22:04:51.576Z,48.08
2018-03-29T22:07:19.341Z,48.11
2018-03-29T22:09:47.063Z,48.03
2018-03-29T22:12:14.768Z,47.54
2018-03-29T22:14:42.429Z,47.40
2018-03-29T22:17:10.192Z,47.21
2018-03-29T22:19:37.846Z,47.30
2018-03-29T22:22:05.722Z,47.27
2018-03-29T22:24:33.474Z,47.40
2018-03-29T22:27:01.252Z,47.42
2018-03-29T22:29:28.924Z,47.22
2018-03-29T22:31:56.795Z,47.24
2018-03-29T22:34:24.469Z,47.61
2018-03-29T22:36:52.215Z,47.99
2018-03-29T22:39:19.866Z,48.60
2018-03-29T22:41:47.632Z,48.95
2018-03-29T22:44:15.397Z,49.30
2018-03-29T22:46:43.108Z,49.34
2018-03-29T22:49:10.925Z,49.46
2018-03-29T22:51:38.641Z,49.53
2018-03-29T22:54:06.453Z,49.51
2018-03-29T22:56:34.116Z,49.42
2018-03-29T22:59:01.843Z,49.23
2018-03-29T23:01:29.634Z,48.68
2018-03-29T23:03:57.415Z,48.80
2018-03-29T23:06:25.276Z,48.97
2018-03-29T23:08:53.040Z,48.87
2018-03-29T23:11:20.907Z,48.78
2018-03-29T23:13:48.672Z,48.76
2018-03-29T23:16:16.503Z,48.79
2018-03-29T23:18:44.248Z,49.33
2018-03-29T23:21:12.068Z,52.72
2018-03-29T23:23:39.729Z,55.33
2018-03-29T23:26:07.446Z,55.14
2018-03-29T23:28:35.259Z,53.66
2018-03-29T23:31:02.979Z,52.52
2018-03-29T23:33:30.685Z,51.81
2018-03-29T23:35:58.390Z,51.68
2018-03-29T23:38:26.216Z,51.52
2018-03-29T23:40:53.921Z,51.57
2018-03-29T23:43:21.693Z,51.88
2018-03-29T23:45:49.396Z,52.14
2018-03-29T23:48:17.125Z,52.20
2018-03-29T23:50:44.935Z,51.96
2018-03-29T23:53:12.697Z,51.80
2018-03-29T23:55:40.360Z,51.61
2018-03-29T23:58:18.201Z,51.32
